createdAt,value
2023-01-05T00:01:08.705Z,0.30
2023-01-05T00:03:35.620Z,0.60
2023-01-05T00:06:02.888Z,0.30
2023-01-05T00:08:34.774Z,0.40
2023-01-05T00:11:25.758Z,0.40
2023-01-05T00:14:10.700Z,0.38
2023-01-05T00:16:56.081Z,0.20
2023-01-05T00:19:41.231Z,0.30
2023-01-05T00:22:34.099Z,0.30
2023-01-05T00:25:04.770Z,0.20
2023-01-05T00:27:37.652Z,0.73
2023-01-05T00:30:04.516Z,0.30
2023-01-05T00:32:30.900Z,0.43
2023-01-05T00:34:57.961Z,0.50
2023-01-05T00:37:25.248Z,0.47
2023-01-05T00:39:51.676Z,0.55
2023-01-05T00:42:18.363Z,0.38
2023-01-05T00:44:44.729Z,0.30
2023-01-05T00:47:11.088Z,0.63
2023-01-05T00:49:37.379Z,0.63
2023-01-05T00:52:03.996Z,0.38
2023-01-05T00:54:30.326Z,0.43
2023-01-05T00:56:56.657Z,0.52
2023-01-05T00:59:23.020Z,0.60
2023-01-05T01:01:49.999Z,0.45
2023-01-05T01:04:16.925Z,0.70
2023-01-05T01:06:43.365Z,0.65
2023-01-05T01:09:10.278Z,0.80
2023-01-05T01:11:36.994Z,0.77
2023-01-05T01:14:03.944Z,0.80
2023-01-05T01:16:30.385Z,0.60
2023-01-05T01:18:56.855Z,1.13
2023-01-05T01:21:23.233Z,1.10
2023-01-05T01:23:49.694Z,0.80
2023-01-05T01:26:16.205Z,0.98
2023-01-05T01:28:42.740Z,0.57
2023-01-05T01:31:09.266Z,0.82
2023-01-05T01:33:38.775Z,1.05
2023-01-05T01:36:06.518Z,0.65
2023-01-05T01:38:33.185Z,0.77
2023-01-05T01:40:59.722Z,0.70
2023-01-05T01:43:43.197Z,1.10
2023-01-05T01:46:09.968Z,0.95
2023-01-05T01:48:38.010Z,1.20
2023-01-05T01:51:08.406Z,0.90
2023-01-05T01:53:40.424Z,1.15
2023-01-05T01:56:08.117Z,1.30
2023-01-05T01:58:34.503Z,1.05
2023-01-05T02:01:01.265Z,1.23
2023-01-05T02:03:28.443Z,1.23
2023-01-05T02:05:55.012Z,1.00
2023-01-05T02:08:25.552Z,1.00
2023-01-05T02:11:04.453Z,0.70
2023-01-05T02:13:33.710Z,1.42
2023-01-05T02:16:07.122Z,1.27
2023-01-05T02:18:45.594Z,1.45
2023-01-05T02:21:24.147Z,1.23
2023-01-05T02:24:08.871Z,1.10
2023-01-05T02:26:35.169Z,1.05
2023-01-05T02:29:21.730Z,0.80
2023-01-05T02:31:57.353Z,1.17
2023-01-05T02:34:45.678Z,1.83
2023-01-05T02:37:12.028Z,1.15
2023-01-05T02:39:47.299Z,1.20
2023-01-05T02:42:15.790Z,1.52
2023-01-05T02:44:42.101Z,1.50
2023-01-05T02:47:28.753Z,1.15
2023-01-05T02:49:56.963Z,1.02
2023-01-05T02:52:23.812Z,0.90
2023-01-05T02:54:59.316Z,1.55
2023-01-05T02:57:47.335Z,1.10
2023-01-05T03:00:18.786Z,1.02
2023-01-05T03:02:49.380Z,0.95
2023-01-05T03:05:18.816Z,0.90
2023-01-05T03:07:45.794Z,1.35
2023-01-05T03:10:32.228Z,1.27
2023-01-05T03:13:18.620Z,0.98
2023-01-05T03:15:46.260Z,1.15
2023-01-05T03:18:17.010Z,1.13
2023-01-05T03:20:44.757Z,1.00
2023-01-05T03:23:30.574Z,1.27
2023-01-05T03:26:15.701Z,1.05
2023-01-05T03:29:07.033Z,0.90
2023-01-05T03:31:54.044Z,0.80
2023-01-05T03:34:57.823Z,1.00
2023-01-05T03:37:27.358Z,1.15
2023-01-05T03:39:53.681Z,0.90
2023-01-05T03:42:20.367Z,1.17
2023-01-05T03:44:47.001Z,1.25
2023-01-05T03:47:14.307Z,1.17
2023-01-05T03:49:40.607Z,1.60
2023-01-05T03:52:07.013Z,1.85
2023-01-05T03:54:33.350Z,1.48
2023-01-05T03:56:59.678Z,1.30
2023-01-05T03:59:26.169Z,1.38
2023-01-05T04:01:52.646Z,1.00
2023-01-05T04:04:19.011Z,0.95
2023-01-05T04:06:45.341Z,1.05
2023-01-05T04:09:11.704Z,1.02
2023-01-05T04:11:38.055Z,1.20
2023-01-05T04:14:04.555Z,0.90
2023-01-05T04:16:31.075Z,1.25
2023-01-05T04:18:57.567Z,0.98
2023-01-05T04:21:23.893Z,0.77
2023-01-05T04:23:50.227Z,1.00
2023-01-05T04:26:16.548Z,0.90
2023-01-05T04:28:43.027Z,1.50
2023-01-05T04:31:09.390Z,1.27
2023-01-05T04:33:36.526Z,1.83
2023-01-05T04:36:02.929Z,1.50
2023-01-05T04:38:29.306Z,1.00
2023-01-05T04:40:55.606Z,1.08
2023-01-05T04:43:21.993Z,1.02
2023-01-05T04:45:48.904Z,1.23
2023-01-05T04:48:15.711Z,1.10
2023-01-05T04:50:42.357Z,1.15
2023-01-05T04:53:08.983Z,1.13
2023-01-05T04:55:35.405Z,0.70
2023-01-05T04:58:03.560Z,0.85
2023-01-05T05:00:33.277Z,0.82
2023-01-05T05:02:59.833Z,0.90
2023-01-05T05:05:26.431Z,1.17
2023-01-05T05:07:52.761Z,1.00
2023-01-05T05:10:19.191Z,1.08
2023-01-05T05:12:45.672Z,1.50
2023-01-05T05:15:12.119Z,1.20
2023-01-05T05:17:38.477Z,1.08
2023-01-05T05:20:05.711Z,1.55
2023-01-05T05:22:32.054Z,1.10
2023-01-05T05:24:58.396Z,1.23
2023-01-05T05:27:24.769Z,1.35
2023-01-05T05:29:51.091Z,1.08
2023-01-05T05:32:17.503Z,2.38
2023-01-05T05:34:43.931Z,0.98
2023-01-05T05:37:11.425Z,0.90
2023-01-05T05:39:37.796Z,0.93
2023-01-05T05:42:04.528Z,1.05
2023-01-05T05:44:30.857Z,0.98
2023-01-05T05:46:57.476Z,0.93
2023-01-05T05:49:23.841Z,0.98
2023-01-05T05:51:50.182Z,0.80
2023-01-05T05:54:16.667Z,0.75
2023-01-05T05:56:42.959Z,0.90
2023-01-05T05:59:09.239Z,0.80
2023-01-05T06:01:35.766Z,1.13
2023-01-05T06:04:02.275Z,0.70
2023-01-05T06:06:28.622Z,0.68
2023-01-05T06:08:55.068Z,1.30
2023-01-05T06:11:21.428Z,0.95
2023-01-05T06:13:48.878Z,0.90
2023-01-05T06:16:15.489Z,0.75
2023-01-05T06:18:41.889Z,0.70
2023-01-05T06:21:09.063Z,0.55
2023-01-05T06:23:35.555Z,1.08
2023-01-05T06:26:01.883Z,1.27
2023-01-05T06:28:28.234Z,1.15
2023-01-05T06:30:54.608Z,0.70
2023-01-05T06:33:21.004Z,1.00
2023-01-05T06:35:47.397Z,0.90
2023-01-05T06:38:16.024Z,0.77
2023-01-05T06:40:44.487Z,1.40
2023-01-05T06:43:11.702Z,1.65
2023-01-05T06:45:38.067Z,1.10
2023-01-05T06:48:04.832Z,1.30
2023-01-05T06:50:32.056Z,1.85
2023-01-05T06:52:59.070Z,1.73
2023-01-05T06:55:26.003Z,1.40
2023-01-05T06:57:57.117Z,1.05
2023-01-05T07:00:27.257Z,1.33
2023-01-05T07:02:53.563Z,1.65
2023-01-05T07:05:19.998Z,1.33
2023-01-05T07:07:46.395Z,1.20
2023-01-05T07:10:12.787Z,1.52
2023-01-05T07:12:39.177Z,1.48
2023-01-05T07:15:06.228Z,1.25
2023-01-05T07:17:32.949Z,1.83
2023-01-05T07:19:59.349Z,1.90
2023-01-05T07:22:25.794Z,1.33
2023-01-05T07:24:52.187Z,1.20
2023-01-05T07:27:18.479Z,1.08
2023-01-05T07:29:44.924Z,1.00
2023-01-05T07:32:11.389Z,0.90
2023-01-05T07:34:37.745Z,1.05
2023-01-05T07:37:04.159Z,1.13
2023-01-05T07:39:30.586Z,1.30
2023-01-05T07:41:57.018Z,1.13
2023-01-05T07:44:23.624Z,1.63
2023-01-05T07:46:49.915Z,1.55
2023-01-05T07:49:16.363Z,1.73
2023-01-05T07:51:42.715Z,1.25
2023-01-05T07:54:09.079Z,1.67
2023-01-05T07:56:35.370Z,1.35
2023-01-05T07:59:01.751Z,2.03
2023-01-05T08:01:28.331Z,1.75
2023-01-05T08:03:54.831Z,2.17
2023-01-05T08:06:21.557Z,2.85
2023-01-05T08:08:48.199Z,1.55
2023-01-05T08:11:15.503Z,1.25
2023-01-05T08:14:00.863Z,0.90
2023-01-05T08:16:28.115Z,0.80
2023-01-05T08:18:54.719Z,1.27
2023-01-05T08:21:21.124Z,1.42
2023-01-05T08:23:47.492Z,0.57
2023-01-05T08:26:15.743Z,1.02
2023-01-05T08:28:42.395Z,1.73
2023-01-05T08:31:11.450Z,1.45
2023-01-05T08:33:37.950Z,1.02
2023-01-05T08:36:11.445Z,1.20
2023-01-05T08:38:37.884Z,1.23
2023-01-05T08:41:04.310Z,1.23
2023-01-05T08:43:30.654Z,1.20
2023-01-05T08:45:57.135Z,1.35
2023-01-05T08:48:23.595Z,1.58
2023-01-05T08:50:50.052Z,1.10
2023-01-05T08:53:16.346Z,1.02
2023-01-05T08:55:42.775Z,1.48
2023-01-05T08:58:09.133Z,1.20
2023-01-05T09:00:35.926Z,1.00
2023-01-05T09:03:02.520Z,0.90
2023-01-05T09:05:28.910Z,1.75
2023-01-05T09:07:55.265Z,1.42
2023-01-05T09:10:21.623Z,1.00
2023-01-05T09:12:47.949Z,1.35
2023-01-05T09:15:14.255Z,1.75
2023-01-05T09:17:40.694Z,1.30
2023-01-05T09:20:07.480Z,1.77
2023-01-05T09:22:36.001Z,1.63
2023-01-05T09:25:03.123Z,1.35
2023-01-05T09:27:29.447Z,1.10
2023-01-05T09:29:55.781Z,1.48
2023-01-05T09:32:24.038Z,1.50
2023-01-05T09:34:50.330Z,1.40
2023-01-05T09:37:16.803Z,1.38
2023-01-05T09:39:43.191Z,1.15
2023-01-05T09:42:13.954Z,1.48
2023-01-05T09:44:45.218Z,1.00
2023-01-05T09:47:20.511Z,1.50
2023-01-05T09:49:48.384Z,1.42
2023-01-05T09:52:14.905Z,1.13
2023-01-05T09:54:41.342Z,0.95
2023-01-05T09:57:14.146Z,1.20
2023-01-05T09:59:48.474Z,1.35
2023-01-05T10:02:17.917Z,1.50
2023-01-05T10:04:45.768Z,1.27
2023-01-05T10:07:20.981Z,1.70
2023-01-05T10:09:47.664Z,1.80
2023-01-05T10:12:37.652Z,1.75
2023-01-05T10:15:06.841Z,1.30
2023-01-05T10:17:44.309Z,1.33
2023-01-05T10:20:15.210Z,1.70
2023-01-05T10:22:48.810Z,1.40
2023-01-05T10:25:34.112Z,1.65
2023-01-05T10:28:15.136Z,1.80
2023-01-05T10:30:50.741Z,1.30
2023-01-05T10:33:49.657Z,1.95
2023-01-05T10:36:48.812Z,1.40
2023-01-05T10:39:11.524Z,1.65
2023-01-05T10:41:50.154Z,1.65
2023-01-05T10:44:28.136Z,1.60
2023-01-05T10:46:54.628Z,1.85
2023-01-05T10:49:24.278Z,2.00
2023-01-05T10:51:56.546Z,1.30
2023-01-05T10:54:29.699Z,1.30
2023-01-05T10:56:56.068Z,1.50
2023-01-05T10:59:22.477Z,1.63
2023-01-05T11:01:49.748Z,1.58
2023-01-05T11:04:34.548Z,1.98
2023-01-05T11:07:03.324Z,1.50
2023-01-05T11:09:29.900Z,1.38
2023-01-05T11:11:58.169Z,1.70
2023-01-05T11:14:24.985Z,1.50
2023-01-05T11:16:53.555Z,1.20
2023-01-05T11:19:26.114Z,1.55
2023-01-05T11:21:58.122Z,1.02
2023-01-05T11:24:30.154Z,1.80
2023-01-05T11:27:01.603Z,1.23
2023-01-05T11:29:28.256Z,1.10
2023-01-05T11:32:04.821Z,1.35
2023-01-05T11:34:39.028Z,1.30
2023-01-05T11:37:20.436Z,1.40
2023-01-05T11:39:46.781Z,0.70
2023-01-05T11:42:24.655Z,0.93
2023-01-05T11:44:59.665Z,1.20
2023-01-05T11:47:28.439Z,1.10
2023-01-05T11:49:59.100Z,0.90
2023-01-05T11:52:50.051Z,1.42
2023-01-05T11:55:25.497Z,1.65
2023-01-05T11:57:59.442Z,1.35
2023-01-05T12:00:26.296Z,1.25
2023-01-05T12:02:55.671Z,1.00
2023-01-05T12:05:34.964Z,0.80
2023-01-05T12:08:07.326Z,1.45
2023-01-05T12:10:44.499Z,0.93
2023-01-05T12:13:29.577Z,1.23
2023-01-05T12:16:02.271Z,1.15
2023-01-05T12:18:50.272Z,1.50
2023-01-05T12:21:24.178Z,1.40
2023-01-05T12:24:05.847Z,0.77
2023-01-05T12:26:41.459Z,0.65
2023-01-05T12:30:43.346Z,1.15
2023-01-05T12:35:16.505Z,1.70
2023-01-05T12:37:42.881Z,1.60
2023-01-05T12:40:11.995Z,1.50
2023-01-05T12:42:56.884Z,1.25
2023-01-05T12:45:32.773Z,1.50
2023-01-05T12:48:07.679Z,0.93
2023-01-05T12:50:39.831Z,1.25
2023-01-05T12:53:12.860Z,1.10
2023-01-05T12:55:41.574Z,1.33
2023-01-05T12:58:26.559Z,1.00
2023-01-05T13:00:53.621Z,0.63
2023-01-05T13:03:23.525Z,0.60
2023-01-05T13:06:08.352Z,0.70
2023-01-05T13:08:45.963Z,0.50
2023-01-05T13:11:21.928Z,0.75
2023-01-05T13:13:52.793Z,0.80
2023-01-05T13:16:21.891Z,1.10
2023-01-05T13:19:02.263Z,1.25
2023-01-05T13:21:28.854Z,0.70
2023-01-05T13:23:57.559Z,1.05
2023-01-05T13:26:24.013Z,0.63
2023-01-05T13:28:52.415Z,0.70
2023-01-05T13:31:37.174Z,0.80
2023-01-05T13:34:15.734Z,0.65
2023-01-05T13:36:47.758Z,0.50
2023-01-05T13:42:01.218Z,0.93
2023-01-05T13:44:59.735Z,0.60
2023-01-05T13:47:45.255Z,0.57
2023-01-05T13:50:27.160Z,0.60
2023-01-05T13:52:56.433Z,0.40
2023-01-05T13:55:26.056Z,0.90
2023-01-05T13:57:55.450Z,0.55
2023-01-05T14:00:31.554Z,1.33
2023-01-05T14:03:02.223Z,1.33
2023-01-05T14:05:37.640Z,0.80
2023-01-05T14:08:06.386Z,0.80
2023-01-05T14:10:33.721Z,0.75
2023-01-05T14:13:00.479Z,1.23
2023-01-05T14:15:28.890Z,1.10
2023-01-05T14:17:58.134Z,0.80
2023-01-05T14:20:33.351Z,1.38
2023-01-05T14:23:00.832Z,0.90
2023-01-05T14:25:39.642Z,0.50
2023-01-05T14:28:24.518Z,1.10
2023-01-05T14:30:51.745Z,1.20
2023-01-05T14:33:19.218Z,1.73
2023-01-05T14:35:45.902Z,1.50
2023-01-05T14:38:15.179Z,1.60
2023-01-05T14:40:43.766Z,1.92
2023-01-05T14:43:28.846Z,2.35
2023-01-05T14:46:11.508Z,1.20
2023-01-05T14:48:40.201Z,0.88
2023-01-05T14:51:08.182Z,1.13
2023-01-05T14:53:43.102Z,1.42
2023-01-05T14:56:09.448Z,1.35
2023-01-05T14:58:35.911Z,1.13
2023-01-05T15:01:05.152Z,1.05
2023-01-05T15:03:43.843Z,1.27
2023-01-05T15:06:13.161Z,0.95
2023-01-05T15:09:05.538Z,1.73
2023-01-05T15:14:31.986Z,1.00
2023-01-05T15:17:13.382Z,3.13
2023-01-05T15:19:58.592Z,2.45
2023-01-05T15:22:39.167Z,1.90
2023-01-05T15:25:08.670Z,2.70
2023-01-05T15:27:49.386Z,3.20
2023-01-05T15:30:28.061Z,2.67
2023-01-05T15:33:08.108Z,2.13
2023-01-05T15:35:42.107Z,2.70
2023-01-05T15:38:28.171Z,2.38
2023-01-05T15:41:04.822Z,3.35
2023-01-05T15:43:31.899Z,2.42
2023-01-05T15:45:58.950Z,1.92
2023-01-05T15:48:27.723Z,2.20
2023-01-05T15:50:55.411Z,2.28
2023-01-05T15:53:24.969Z,2.17
2023-01-05T15:55:54.080Z,2.00
2023-01-05T15:58:21.171Z,1.75
2023-01-05T16:01:07.781Z,1.67
2023-01-05T16:03:35.492Z,1.85
2023-01-05T16:06:03.703Z,1.60
2023-01-05T16:08:31.380Z,3.00
2023-01-05T16:11:00.813Z,2.10
2023-01-05T16:13:39.378Z,1.90
2023-01-05T16:16:12.921Z,2.47
2023-01-05T16:18:44.168Z,1.75
2023-01-05T16:21:18.451Z,2.63
2023-01-05T16:23:53.624Z,1.60
2023-01-05T16:26:20.181Z,1.95
2023-01-05T16:28:46.599Z,3.03
2023-01-05T16:31:24.712Z,1.95
2023-01-05T16:34:01.299Z,1.67
2023-01-05T16:36:27.774Z,2.13
2023-01-05T16:39:11.723Z,1.50
2023-01-05T16:41:58.061Z,2.17
2023-01-05T16:44:24.404Z,1.45
2023-01-05T16:47:05.670Z,0.90
2023-01-05T16:49:35.071Z,1.23
2023-01-05T16:52:03.468Z,1.40
2023-01-05T16:54:38.312Z,2.00
2023-01-05T16:57:28.778Z,2.05
2023-01-05T16:59:55.533Z,1.65
2023-01-05T17:02:29.140Z,2.05
2023-01-05T17:04:55.747Z,1.60
2023-01-05T17:07:22.454Z,1.30
2023-01-05T17:09:48.972Z,2.08
2023-01-05T17:12:15.352Z,1.60
2023-01-05T17:14:43.081Z,2.33
2023-01-05T17:17:11.315Z,1.70
2023-01-05T17:19:37.723Z,1.88
2023-01-05T17:22:10.270Z,2.47
2023-01-05T17:24:38.648Z,1.48
2023-01-05T17:27:05.014Z,1.38
2023-01-05T17:29:32.560Z,3.33
2023-01-05T17:31:59.030Z,1.83
2023-01-05T17:34:25.412Z,2.13
2023-01-05T17:36:53.984Z,2.28
2023-01-05T17:39:20.930Z,2.38
2023-01-05T17:41:47.467Z,1.80
2023-01-05T17:44:14.034Z,2.22
2023-01-05T17:46:41.783Z,1.92
2023-01-05T17:49:15.458Z,2.15
2023-01-05T17:51:41.888Z,1.67
2023-01-05T17:54:08.282Z,1.60
2023-01-05T17:56:34.730Z,2.17
2023-01-05T17:59:01.188Z,2.08
2023-01-05T18:01:27.624Z,1.33
2023-01-05T18:03:54.000Z,1.90
2023-01-05T18:06:20.354Z,1.80
2023-01-05T18:08:46.728Z,1.90
2023-01-05T18:11:14.277Z,2.15
2023-01-05T18:16:08.667Z,2.40
2023-01-05T18:18:35.473Z,2.03
2023-01-05T18:21:02.678Z,2.40
2023-01-05T18:23:29.788Z,2.20
2023-01-05T18:26:01.172Z,1.95
2023-01-05T18:28:27.959Z,3.10
2023-01-05T18:30:56.090Z,3.40
2023-01-05T18:33:22.685Z,2.38
2023-01-05T18:35:50.829Z,3.00
2023-01-05T18:38:20.712Z,3.70
2023-01-05T18:40:49.011Z,2.97
2023-01-05T18:43:15.629Z,4.75
2023-01-05T18:45:42.028Z,2.72
2023-01-05T18:48:08.434Z,2.63
2023-01-05T18:50:34.839Z,2.40
2023-01-05T18:53:01.176Z,2.58
2023-01-05T18:55:27.675Z,2.58
2023-01-05T18:57:54.145Z,2.25
2023-01-05T19:00:20.462Z,2.25
2023-01-05T19:02:46.810Z,2.47
2023-01-05T19:05:13.175Z,1.60
2023-01-05T19:07:39.848Z,1.25
2023-01-05T19:10:06.391Z,1.80
2023-01-05T19:12:32.817Z,2.00
2023-01-05T19:14:59.157Z,2.10
2023-01-05T19:17:25.559Z,1.90
2023-01-05T19:19:54.999Z,1.40
2023-01-05T19:22:21.348Z,2.55
2023-01-05T19:24:47.635Z,2.08
2023-01-05T19:27:13.948Z,2.08
2023-01-05T19:29:41.993Z,1.80
2023-01-05T19:32:08.304Z,1.45
2023-01-05T19:34:34.642Z,1.50
2023-01-05T19:37:03.318Z,2.00
2023-01-05T19:39:29.655Z,2.33
2023-01-05T19:41:56.051Z,1.77
2023-01-05T19:44:22.892Z,1.42
2023-01-05T19:46:51.841Z,1.70
2023-01-05T19:49:19.239Z,2.03
2023-01-05T19:51:46.304Z,1.83
2023-01-05T19:54:13.722Z,1.90
2023-01-05T19:56:40.824Z,1.70
2023-01-05T19:59:08.188Z,1.52
2023-01-05T20:01:35.947Z,1.55
2023-01-05T20:04:02.520Z,1.60
2023-01-05T20:06:30.136Z,1.88
2023-01-05T20:08:57.738Z,1.50
2023-01-05T20:11:39.565Z,1.88
2023-01-05T20:14:15.148Z,2.17
2023-01-05T20:16:43.242Z,1.52
2023-01-05T20:19:09.750Z,1.30
2023-01-05T20:21:36.170Z,1.90
2023-01-05T20:24:03.327Z,1.50
2023-01-05T20:26:30.588Z,1.67
2023-01-05T20:29:00.125Z,1.50
2023-01-05T20:31:28.266Z,1.40
2023-01-05T20:33:55.819Z,1.30
2023-01-05T20:36:22.497Z,1.42
2023-01-05T20:38:49.256Z,1.63
2023-01-05T20:41:21.001Z,1.75
2023-01-05T20:43:48.053Z,1.92
2023-01-05T20:46:15.354Z,1.58
2023-01-05T20:48:41.731Z,1.23
2023-01-05T20:51:09.363Z,1.60
2023-01-05T20:53:36.229Z,2.00
2023-01-05T20:56:06.548Z,2.00
2023-01-05T20:58:33.832Z,1.83
2023-01-05T21:01:10.179Z,1.95
2023-01-05T21:03:37.935Z,1.92
2023-01-05T21:06:05.454Z,1.30
2023-01-05T21:08:31.826Z,1.20
2023-01-05T21:10:59.218Z,1.40
2023-01-05T21:13:32.212Z,1.35
2023-01-05T21:16:03.680Z,1.02
2023-01-05T21:18:30.635Z,1.27
2023-01-05T21:20:57.045Z,1.35
2023-01-05T21:23:23.653Z,0.98
2023-01-05T21:26:05.485Z,1.10
2023-01-05T21:28:35.629Z,1.20
2023-01-05T21:31:03.681Z,1.00
2023-01-05T21:33:30.109Z,1.00
2023-01-05T21:35:56.466Z,1.35
2023-01-05T21:38:24.580Z,0.80
2023-01-05T21:40:51.175Z,0.98
2023-01-05T21:43:17.563Z,1.10
2023-01-05T21:45:44.237Z,1.23
2023-01-05T21:48:10.733Z,1.13
2023-01-05T21:50:57.507Z,1.02
2023-01-05T21:53:42.369Z,1.23
2023-01-05T21:56:28.149Z,0.90
2023-01-05T21:58:55.261Z,0.70
2023-01-05T22:01:22.083Z,0.90
2023-01-05T22:03:48.759Z,0.93
2023-01-05T22:06:15.222Z,0.70
2023-01-05T22:08:41.606Z,0.75
2023-01-05T22:11:08.001Z,0.60
2023-01-05T22:13:35.915Z,0.60
2023-01-05T22:16:02.955Z,0.98
2023-01-05T22:18:29.334Z,0.70
2023-01-05T22:20:59.755Z,0.70
2023-01-05T22:23:27.209Z,1.00
2023-01-05T22:26:05.365Z,0.95
2023-01-05T22:28:32.194Z,0.85
2023-01-05T22:31:12.234Z,1.00
2023-01-05T22:33:40.014Z,0.88
2023-01-05T22:36:06.886Z,0.70
2023-01-05T22:38:37.602Z,0.70
2023-01-05T22:41:04.826Z,0.80
2023-01-05T22:43:31.531Z,1.00
2023-01-05T22:46:02.445Z,0.82
2023-01-05T22:48:31.955Z,0.80
2023-01-05T22:51:08.963Z,1.00
2023-01-05T22:53:35.302Z,1.30
2023-01-05T22:56:01.597Z,0.70
2023-01-05T22:58:28.396Z,1.02
2023-01-05T23:00:54.924Z,0.88
2023-01-05T23:03:21.866Z,1.20
2023-01-05T23:05:48.259Z,0.93
2023-01-05T23:08:14.560Z,1.40
2023-01-05T23:10:40.877Z,1.02
2023-01-05T23:13:07.177Z,0.60
2023-01-05T23:15:33.488Z,0.90
2023-01-05T23:17:59.846Z,0.90
2023-01-05T23:20:26.275Z,0.70
2023-01-05T23:22:52.854Z,1.00
2023-01-05T23:25:19.166Z,0.88
2023-01-05T23:27:45.591Z,0.90
2023-01-05T23:30:12.296Z,1.08
2023-01-05T23:32:38.688Z,0.80
2023-01-05T23:35:05.300Z,0.60
2023-01-05T23:37:31.681Z,0.50
2023-01-05T23:39:57.999Z,0.80
2023-01-05T23:42:43.013Z,0.80
2023-01-05T23:45:09.682Z,0.85
2023-01-05T23:47:36.136Z,1.30
2023-01-05T23:50:02.412Z,1.00
2023-01-05T23:52:28.745Z,0.85
2023-01-05T23:54:55.029Z,0.80
2023-01-05T23:57:21.386Z,0.43
2023-01-05T23:59:47.758Z,0.47
